createdAt,value
2023-04-13T00:01:54.943Z,86.35
2023-04-13T00:04:18.603Z,86.75
2023-04-13T00:06:42.850Z,86.53
2023-04-13T00:09:06.756Z,85.71
2023-04-13T00:11:32.066Z,84.78
2023-04-13T00:13:55.745Z,88.73
2023-04-13T00:16:20.660Z,89.02
2023-04-13T00:18:45.258Z,86.93
2023-04-13T00:21:09.775Z,85.19
2023-04-13T00:23:33.409Z,88.32
2023-04-13T00:25:56.968Z,84.32
2023-04-13T00:28:20.615Z,83.37
2023-04-13T00:30:44.200Z,81.75
2023-04-13T00:33:09.217Z,85.46
2023-04-13T00:35:33.182Z,83.10
2023-04-13T00:37:58.817Z,83.00
2023-04-13T00:40:22.448Z,82.35
2023-04-13T00:42:46.855Z,84.79
2023-04-13T00:45:12.173Z,82.64
2023-04-13T00:47:36.216Z,82.43
2023-04-13T00:50:04.256Z,82.62
2023-04-13T00:52:29.033Z,81.68
2023-04-13T00:54:56.490Z,87.98
2023-04-13T00:57:21.306Z,86.36
2023-04-13T00:59:45.292Z,86.05
2023-04-13T01:02:08.977Z,83.40
2023-04-13T01:04:33.803Z,86.25
2023-04-13T01:07:17.810Z,87.67
2023-04-13T01:09:52.533Z,87.46
2023-04-13T01:12:23.445Z,89.10
2023-04-13T01:14:56.143Z,89.54
2023-04-13T01:17:25.754Z,90.10
2023-04-13T01:19:57.876Z,90.14
2023-04-13T01:22:28.675Z,89.44
2023-04-13T01:25:08.925Z,87.84
2023-04-13T01:27:44.985Z,94.17
2023-04-13T01:30:11.256Z,95.62
2023-04-13T01:32:35.392Z,96.57
2023-04-13T01:34:59.588Z,96.73
2023-04-13T01:37:25.763Z,96.49
2023-04-13T01:39:51.391Z,96.81
2023-04-13T01:42:21.068Z,98.51
2023-04-13T01:44:48.273Z,97.42
2023-04-13T01:47:19.080Z,98.27
2023-04-13T01:49:53.046Z,99.05
2023-04-13T01:52:35.633Z,97.99
2023-04-13T01:55:02.367Z,100.00
2023-04-13T01:57:29.130Z,100.00
2023-04-13T01:59:55.093Z,97.80
2023-04-13T02:02:19.047Z,99.89
2023-04-13T02:04:42.934Z,99.20
2023-04-13T02:07:06.670Z,98.17
2023-04-13T02:09:35.325Z,99.66
2023-04-13T02:11:58.852Z,97.81
2023-04-13T02:14:23.076Z,97.08
2023-04-13T02:16:48.930Z,95.63
2023-04-13T02:19:13.618Z,95.65
2023-04-13T02:21:37.216Z,95.44
2023-04-13T02:24:01.326Z,93.75
2023-04-13T02:26:26.262Z,93.25
2023-04-13T02:28:51.318Z,93.64
2023-04-13T02:31:17.087Z,93.53
2023-04-13T02:33:44.889Z,95.15
2023-04-13T02:36:10.062Z,93.35
2023-04-13T02:38:39.411Z,94.61
2023-04-13T02:41:09.300Z,92.86
2023-04-13T02:43:33.397Z,91.76
2023-04-13T02:45:58.362Z,92.36
2023-04-13T02:48:27.038Z,92.41
2023-04-13T02:50:55.657Z,92.54
2023-04-13T02:53:24.315Z,92.49
2023-04-13T02:55:53.623Z,93.33
2023-04-13T02:58:17.301Z,91.56
2023-04-13T03:00:48.723Z,90.83
2023-04-13T03:03:17.102Z,89.58
2023-04-13T03:05:43.081Z,89.73
2023-04-13T03:08:12.423Z,89.65
2023-04-13T03:10:45.757Z,90.30
2023-04-13T03:13:09.421Z,87.90
2023-04-13T03:15:33.870Z,92.30
2023-04-13T03:17:59.919Z,92.36
2023-04-13T03:20:24.822Z,91.45
2023-04-13T03:22:53.709Z,91.34
2023-04-13T03:25:19.698Z,90.72
2023-04-13T03:27:44.130Z,91.49
2023-04-13T03:30:09.487Z,91.94
2023-04-13T03:32:42.654Z,89.72
2023-04-13T03:35:07.061Z,88.83
2023-04-13T03:37:32.736Z,90.34
2023-04-13T03:40:09.858Z,92.28
2023-04-13T03:42:42.450Z,91.28
2023-04-13T03:45:07.863Z,89.45
2023-04-13T03:47:31.821Z,87.32
2023-04-13T03:49:55.709Z,88.36
2023-04-13T03:52:19.530Z,89.54
2023-04-13T03:54:50.339Z,86.33
2023-04-13T03:57:14.172Z,87.50
2023-04-13T03:59:39.758Z,87.41
2023-04-13T04:02:07.212Z,88.18
2023-04-13T04:04:35.796Z,87.38
2023-04-13T04:06:59.450Z,85.17
2023-04-13T04:09:23.179Z,86.13
2023-04-13T04:11:47.078Z,85.11
2023-04-13T04:14:15.407Z,85.96
2023-04-13T04:16:49.234Z,86.93
2023-04-13T04:19:14.916Z,88.61
2023-04-13T04:21:38.499Z,87.94
2023-04-13T04:24:08.911Z,87.71
2023-04-13T04:26:38.049Z,87.38
2023-04-13T04:29:02.985Z,89.29
2023-04-13T04:31:36.763Z,86.09
2023-04-13T04:34:05.076Z,85.08
2023-04-13T04:36:31.748Z,84.57
2023-04-13T04:39:02.633Z,85.42
2023-04-13T04:41:31.368Z,87.79
2023-04-13T04:44:02.820Z,86.48
2023-04-13T04:46:32.241Z,87.44
2023-04-13T04:49:01.666Z,85.91
2023-04-13T04:51:28.071Z,84.75
2023-04-13T04:53:52.503Z,87.52
2023-04-13T04:56:18.384Z,87.24
2023-04-13T04:58:46.355Z,87.36
2023-04-13T05:01:10.854Z,88.67
2023-04-13T05:03:36.173Z,87.10
2023-04-13T05:06:15.058Z,86.14
2023-04-13T05:08:44.797Z,85.96
2023-04-13T05:11:09.784Z,86.40
2023-04-13T05:13:33.405Z,85.64
2023-04-13T05:16:08.351Z,86.35
2023-04-13T05:18:33.065Z,87.48
2023-04-13T05:20:57.013Z,87.87
2023-04-13T05:23:20.745Z,88.04
2023-04-13T05:25:52.763Z,87.94
2023-04-13T05:28:18.378Z,88.65
2023-04-13T05:30:43.727Z,87.84
2023-04-13T05:33:09.295Z,89.44
2023-04-13T05:35:33.667Z,87.95
2023-04-13T05:38:00.191Z,90.18
2023-04-13T05:40:27.729Z,90.66
2023-04-13T05:42:52.763Z,92.13
2023-04-13T05:45:22.099Z,90.53
2023-04-13T05:47:59.945Z,92.75
2023-04-13T05:50:23.643Z,91.94
2023-04-13T05:52:48.663Z,90.37
2023-04-13T05:55:12.688Z,91.43
2023-04-13T05:57:40.085Z,90.71
2023-04-13T06:00:12.139Z,90.95
2023-04-13T06:02:45.098Z,90.82
2023-04-13T06:05:13.780Z,92.32
2023-04-13T06:07:37.401Z,90.80
2023-04-13T06:10:02.200Z,91.10
2023-04-13T06:12:25.892Z,92.09
2023-04-13T06:14:49.519Z,92.97
2023-04-13T06:17:14.455Z,93.04
2023-04-13T06:19:38.411Z,92.82
2023-04-13T06:22:02.353Z,92.15
2023-04-13T06:24:28.405Z,92.42
2023-04-13T06:26:52.494Z,93.03
2023-04-13T06:29:16.628Z,90.48
2023-04-13T06:31:48.606Z,91.76
2023-04-13T06:34:16.192Z,91.01
2023-04-13T06:36:40.601Z,89.45
2023-04-13T06:39:07.122Z,89.46
2023-04-13T06:41:31.481Z,90.22
2023-04-13T06:44:10.600Z,88.56
2023-04-13T06:46:44.387Z,88.93
2023-04-13T06:49:09.286Z,88.74
2023-04-13T06:51:36.696Z,87.30
2023-04-13T06:54:00.987Z,88.79
2023-04-13T06:56:24.516Z,88.41
2023-04-13T06:58:48.345Z,85.73
2023-04-13T07:01:12.450Z,87.10
2023-04-13T07:03:37.733Z,87.45
2023-04-13T07:06:01.867Z,87.32
2023-04-13T07:08:28.219Z,84.75
2023-04-13T07:10:54.859Z,86.23
2023-04-13T07:13:27.239Z,83.97
2023-04-13T07:15:52.173Z,85.62
2023-04-13T07:18:15.911Z,86.03
2023-04-13T07:20:39.825Z,84.55
2023-04-13T07:23:03.860Z,83.80
2023-04-13T07:25:28.947Z,84.08
2023-04-13T07:27:52.503Z,82.99
2023-04-13T07:30:18.558Z,83.03
2023-04-13T07:32:43.963Z,82.65
2023-04-13T07:35:08.633Z,82.07
2023-04-13T07:37:34.092Z,82.95
2023-04-13T07:39:58.293Z,83.05
2023-04-13T07:42:23.804Z,81.33
2023-04-13T07:44:49.058Z,82.14
2023-04-13T07:47:14.041Z,83.19
2023-04-13T07:49:39.595Z,83.37
2023-04-13T07:52:08.574Z,81.43
2023-04-13T07:54:35.024Z,80.67
2023-04-13T07:56:58.674Z,79.35
2023-04-13T07:59:26.697Z,78.34
2023-04-13T08:01:51.067Z,77.52
2023-04-13T08:04:15.833Z,77.91
2023-04-13T08:06:40.954Z,77.16
2023-04-13T08:09:05.311Z,75.71
2023-04-13T08:11:29.477Z,74.65
2023-04-13T08:13:59.179Z,76.24
2023-04-13T08:16:24.700Z,74.44
2023-04-13T08:18:48.422Z,72.93
2023-04-13T08:21:15.045Z,75.67
2023-04-13T08:23:42.351Z,75.73
2023-04-13T08:26:06.303Z,71.99
2023-04-13T08:28:32.083Z,71.74
2023-04-13T08:30:56.611Z,71.28
2023-04-13T08:33:21.992Z,69.81
2023-04-13T08:35:45.638Z,71.28
2023-04-13T08:38:09.453Z,69.92
2023-04-13T08:40:40.122Z,66.51
2023-04-13T08:43:08.861Z,69.76
2023-04-13T08:45:33.396Z,67.02
2023-04-13T08:47:57.778Z,65.43
2023-04-13T08:50:26.823Z,66.05
2023-04-13T08:52:51.623Z,67.84
2023-04-13T08:55:15.784Z,67.44
2023-04-13T08:57:42.284Z,65.44
2023-04-13T09:00:12.541Z,62.29
2023-04-13T09:02:42.140Z,63.39
2023-04-13T09:05:16.653Z,64.08
2023-04-13T09:07:54.162Z,62.30
2023-04-13T09:10:20.304Z,62.53
2023-04-13T09:12:44.557Z,63.43
2023-04-13T09:15:09.623Z,61.36
2023-04-13T09:17:41.993Z,63.93
2023-04-13T09:20:18.961Z,63.19
2023-04-13T09:22:43.011Z,61.71
2023-04-13T09:25:20.813Z,63.01
2023-04-13T09:27:45.392Z,59.99
2023-04-13T09:30:11.677Z,60.66
2023-04-13T09:32:36.169Z,59.97
2023-04-13T09:35:05.384Z,57.87
2023-04-13T09:37:30.856Z,58.36
2023-04-13T09:39:55.508Z,60.69
2023-04-13T09:42:21.590Z,59.03
2023-04-13T09:44:46.137Z,61.63
2023-04-13T09:47:13.078Z,59.52
2023-04-13T09:49:41.117Z,59.80
2023-04-13T09:52:07.708Z,57.64
2023-04-13T09:54:32.130Z,58.07
2023-04-13T09:56:58.025Z,60.30
2023-04-13T09:59:24.861Z,59.96
2023-04-13T10:01:50.293Z,60.18
2023-04-13T10:04:14.620Z,59.35
2023-04-13T10:06:40.805Z,58.98
2023-04-13T10:09:04.453Z,57.02
2023-04-13T10:11:28.201Z,53.98
2023-04-13T10:13:58.327Z,58.08
2023-04-13T10:16:46.447Z,56.70
2023-04-13T10:19:14.180Z,56.04
2023-04-13T10:21:40.618Z,53.75
2023-04-13T10:24:11.327Z,52.62
2023-04-13T10:26:37.426Z,52.92
2023-04-13T10:29:02.516Z,53.05
2023-04-13T10:31:39.246Z,51.75
2023-04-13T10:34:02.937Z,53.36
2023-04-13T10:36:39.255Z,53.89
2023-04-13T10:39:02.864Z,52.57
2023-04-13T10:41:28.492Z,54.97
2023-04-13T10:44:02.775Z,53.07
2023-04-13T10:46:26.440Z,53.07
2023-04-13T10:48:59.465Z,53.50
2023-04-13T10:51:23.210Z,55.05
2023-04-13T10:53:47.040Z,50.59
2023-04-13T10:56:17.906Z,51.09
2023-04-13T10:58:42.169Z,54.67
2023-04-13T11:01:06.331Z,50.59
2023-04-13T11:03:30.649Z,54.72
2023-04-13T11:06:02.536Z,52.31
2023-04-13T11:08:28.096Z,53.06
2023-04-13T11:10:53.276Z,53.69
2023-04-13T11:13:17.075Z,53.58
2023-04-13T11:15:40.841Z,57.79
2023-04-13T11:18:04.748Z,55.38
2023-04-13T11:20:33.421Z,52.59
2023-04-13T11:22:58.621Z,51.94
2023-04-13T11:25:22.189Z,54.58
2023-04-13T11:27:49.649Z,51.65
2023-04-13T11:30:14.038Z,51.17
2023-04-13T11:32:41.740Z,52.07
2023-04-13T11:35:09.774Z,52.38
2023-04-13T11:37:37.758Z,49.11
2023-04-13T11:40:10.268Z,47.04
2023-04-13T11:42:33.984Z,49.55
2023-04-13T11:44:58.130Z,46.76
2023-04-13T11:47:22.253Z,46.58
2023-04-13T11:49:48.076Z,50.02
2023-04-13T11:52:11.779Z,49.49
2023-04-13T11:54:35.880Z,50.46
2023-04-13T11:57:01.688Z,48.12
2023-04-13T11:59:25.593Z,48.84
2023-04-13T12:02:01.512Z,49.36
2023-04-13T12:04:27.323Z,49.06
2023-04-13T12:06:51.263Z,47.66
2023-04-13T12:09:19.164Z,49.25
2023-04-13T12:11:50.058Z,47.77
2023-04-13T12:14:51.972Z,46.33
2023-04-13T12:19:43.862Z,46.79
2023-04-13T12:22:07.728Z,48.32
2023-04-13T12:24:34.141Z,47.29
2023-04-13T12:29:25.952Z,47.58
2023-04-13T12:31:49.589Z,49.88
2023-04-13T12:34:13.199Z,46.56
2023-04-13T12:36:37.121Z,50.84
2023-04-13T12:39:01.094Z,48.53
2023-04-13T12:41:24.852Z,52.04
2023-04-13T12:43:48.439Z,47.72
2023-04-13T12:46:13.365Z,48.90
2023-04-13T12:48:36.929Z,48.92
2023-04-13T12:51:00.507Z,47.15
2023-04-13T12:53:24.082Z,48.59
2023-04-13T12:55:47.615Z,46.11
2023-04-13T12:58:12.460Z,47.74
2023-04-13T13:00:36.236Z,47.78
2023-04-13T13:03:13.118Z,47.75
2023-04-13T13:05:37.533Z,46.62
2023-04-13T13:08:01.087Z,48.05
2023-04-13T13:10:29.675Z,47.40
2023-04-13T13:12:53.647Z,47.40
2023-04-13T13:15:17.400Z,47.74
2023-04-13T13:17:41.323Z,44.65
2023-04-13T13:20:08.978Z,44.78
2023-04-13T13:22:32.545Z,46.72
2023-04-13T13:24:56.932Z,47.93
2023-04-13T13:28:00.887Z,45.87
2023-04-13T13:30:04.696Z,44.30
2023-04-13T13:32:30.235Z,43.20
2023-04-13T13:34:53.965Z,45.51
2023-04-13T13:37:18.875Z,46.83
2023-04-13T13:39:42.604Z,45.20
2023-04-13T13:42:06.799Z,44.90
2023-04-13T13:44:30.803Z,43.53
2023-04-13T13:46:54.340Z,44.29
2023-04-13T13:49:19.950Z,45.29
2023-04-13T13:52:12.901Z,43.32
2023-04-13T13:54:45.602Z,44.81
2023-04-13T13:57:09.264Z,44.67
2023-04-13T13:59:32.819Z,45.07
2023-04-13T14:01:56.664Z,46.42
2023-04-13T14:04:20.417Z,44.04
2023-04-13T14:06:44.113Z,45.73
2023-04-13T14:09:07.809Z,45.65
2023-04-13T14:11:33.075Z,43.95
2023-04-13T14:13:56.589Z,46.14
2023-04-13T14:16:20.255Z,43.94
2023-04-13T14:18:43.884Z,44.16
2023-04-13T14:21:09.092Z,43.42
2023-04-13T14:23:32.994Z,47.10
2023-04-13T14:25:56.561Z,44.20
2023-04-13T14:28:21.481Z,44.77
2023-04-13T14:30:45.425Z,44.24
2023-04-13T14:33:09.255Z,45.49
2023-04-13T14:35:33.029Z,43.85
2023-04-13T14:37:56.590Z,43.38
2023-04-13T14:40:22.562Z,44.28
2023-04-13T14:42:46.716Z,44.90
2023-04-13T14:45:12.702Z,45.45
2023-04-13T14:47:36.961Z,43.44
2023-04-13T14:50:01.008Z,43.59
2023-04-13T14:52:24.903Z,45.88
2023-04-13T14:54:48.773Z,44.32
2023-04-13T14:57:12.337Z,46.11
2023-04-13T14:59:35.994Z,46.29
2023-04-13T15:02:01.540Z,45.42
2023-04-13T15:04:25.317Z,45.04
2023-04-13T15:06:49.425Z,43.79
2023-04-13T15:09:13.135Z,46.34
2023-04-13T15:11:37.298Z,43.99
2023-04-13T15:14:00.985Z,45.77
2023-04-13T15:16:24.628Z,45.61
2023-04-13T15:18:49.675Z,47.50
2023-04-13T15:21:13.229Z,47.42
2023-04-13T15:23:36.902Z,45.97
2023-04-13T15:26:01.207Z,45.60
2023-04-13T15:28:24.840Z,44.99
2023-04-13T15:30:48.451Z,46.55
2023-04-13T15:33:12.207Z,48.12
2023-04-13T15:35:37.197Z,46.65
2023-04-13T15:38:03.161Z,46.39
2023-04-13T15:40:26.866Z,48.42
2023-04-13T15:42:50.913Z,45.70
2023-04-13T15:45:14.757Z,46.49
2023-04-13T15:47:38.524Z,44.87
2023-04-13T15:50:02.157Z,47.15
2023-04-13T15:52:27.135Z,45.71
2023-04-13T15:54:50.705Z,48.36
2023-04-13T15:57:15.117Z,48.53
2023-04-13T15:59:38.662Z,47.44
2023-04-13T16:02:03.196Z,46.61
2023-04-13T16:04:27.252Z,46.24
2023-04-13T16:07:05.153Z,47.79
2023-04-13T16:09:36.421Z,46.32
2023-04-13T16:12:02.723Z,47.49
2023-04-13T16:14:27.820Z,46.83
2023-04-13T16:16:53.506Z,47.02
2023-04-13T16:19:18.225Z,46.18
2023-04-13T16:21:43.505Z,46.62
2023-04-13T16:24:08.667Z,47.61
2023-04-13T16:26:33.961Z,47.07
2023-04-13T16:28:57.677Z,47.57
2023-04-13T16:31:21.407Z,48.71
2023-04-13T16:33:45.061Z,49.03
2023-04-13T16:36:09.932Z,46.80
2023-04-13T16:38:33.520Z,47.02
2023-04-13T16:40:57.101Z,47.33
2023-04-13T16:43:22.760Z,47.61
2023-04-13T16:45:46.301Z,46.80
2023-04-13T16:48:09.939Z,47.05
2023-04-13T16:50:33.555Z,47.72
2023-04-13T16:52:57.282Z,48.04
2023-04-13T16:55:20.903Z,46.49
2023-04-13T16:57:45.224Z,47.50
2023-04-13T17:00:12.415Z,47.06
2023-04-13T17:02:37.142Z,47.12
2023-04-13T17:05:01.176Z,50.26
2023-04-13T17:07:26.899Z,50.17
2023-04-13T17:09:50.818Z,49.17
2023-04-13T17:12:14.422Z,47.67
2023-04-13T17:14:37.923Z,47.40
2023-04-13T17:17:02.900Z,49.97
2023-04-13T17:19:27.174Z,48.96
2023-04-13T17:21:52.065Z,50.01
2023-04-13T17:24:15.788Z,49.96
2023-04-13T17:26:39.362Z,50.07
2023-04-13T17:29:02.986Z,49.09
2023-04-13T17:31:27.113Z,51.55
2023-04-13T17:33:52.077Z,52.72
2023-04-13T17:36:15.828Z,52.60
2023-04-13T17:38:39.355Z,53.27
2023-04-13T17:41:02.963Z,53.67
2023-04-13T17:43:26.550Z,54.16
2023-04-13T17:45:50.248Z,54.53
2023-04-13T17:48:13.877Z,54.99
2023-04-13T17:50:38.864Z,55.33
2023-04-13T17:53:04.139Z,55.86
2023-04-13T17:55:27.939Z,55.81
2023-04-13T17:57:51.447Z,56.21
2023-04-13T18:00:17.006Z,56.94
2023-04-13T18:02:40.671Z,56.84
2023-04-13T18:05:07.001Z,57.45
2023-04-13T18:07:32.119Z,57.79
2023-04-13T18:09:57.096Z,58.28
2023-04-13T18:12:20.980Z,58.28
2023-04-13T18:14:44.925Z,58.85
2023-04-13T18:17:08.521Z,59.06
2023-04-13T18:19:32.897Z,59.22
2023-04-13T18:21:56.465Z,59.41
2023-04-13T18:24:21.426Z,59.41
2023-04-13T18:26:44.973Z,59.77
2023-04-13T18:29:08.917Z,60.32
2023-04-13T18:31:33.311Z,60.58
2023-04-13T18:33:57.633Z,61.09
2023-04-13T18:36:21.428Z,61.77
2023-04-13T18:38:46.306Z,62.24
2023-04-13T18:41:11.317Z,62.28
2023-04-13T18:43:34.998Z,62.22
2023-04-13T18:45:58.565Z,62.30
2023-04-13T18:48:22.322Z,62.24
2023-04-13T18:50:46.432Z,62.79
2023-04-13T18:53:10.014Z,62.93
2023-04-13T18:55:33.607Z,63.35
2023-04-13T18:57:58.696Z,63.54
2023-04-13T19:00:23.110Z,63.92
2023-04-13T19:02:49.677Z,64.15
2023-04-13T19:05:13.765Z,64.59
2023-04-13T19:07:38.048Z,64.85
2023-04-13T19:10:01.568Z,64.60
2023-04-13T19:12:25.160Z,64.96
2023-04-13T19:14:50.451Z,64.97
2023-04-13T19:17:14.569Z,65.43
2023-04-13T19:19:38.115Z,66.27
2023-04-13T19:22:01.731Z,67.05
2023-04-13T19:24:25.320Z,67.16
2023-04-13T19:26:49.414Z,66.68
2023-04-13T19:29:13.503Z,66.44
2023-04-13T19:31:40.642Z,66.82
2023-04-13T19:34:04.467Z,67.23
2023-04-13T19:36:28.085Z,66.86
2023-04-13T19:38:51.908Z,68.09
2023-04-13T19:41:15.671Z,68.34
2023-04-13T19:43:39.216Z,68.05
2023-04-13T19:46:03.069Z,67.98
2023-04-13T19:48:28.339Z,68.26
2023-04-13T19:50:51.930Z,68.02
2023-04-13T19:53:15.478Z,68.14
2023-04-13T19:55:39.224Z,68.46
2023-04-13T19:58:02.997Z,69.20
2023-04-13T20:00:28.039Z,70.22
2023-04-13T20:02:53.025Z,70.70
2023-04-13T20:05:19.654Z,70.72
2023-04-13T20:07:43.331Z,70.86
2023-04-13T20:10:08.849Z,70.64
2023-04-13T20:12:32.488Z,70.68
2023-04-13T20:14:56.129Z,70.14
2023-04-13T20:17:19.727Z,69.97
2023-04-13T20:19:43.396Z,71.05
2023-04-13T20:22:10.222Z,70.17
2023-04-13T20:24:33.796Z,70.10
2023-04-13T20:26:57.334Z,71.04
2023-04-13T20:29:22.710Z,71.07
2023-04-13T20:31:46.369Z,70.92
2023-04-13T20:34:13.498Z,70.90
2023-04-13T20:36:37.023Z,71.09
2023-04-13T20:39:02.206Z,70.76
2023-04-13T20:41:26.273Z,71.06
2023-04-13T20:43:52.245Z,71.03
2023-04-13T20:46:16.602Z,71.11
2023-04-13T20:51:09.046Z,71.22
2023-04-13T20:53:32.630Z,71.83
2023-04-13T20:55:58.432Z,71.90
2023-04-13T20:58:22.271Z,71.48
2023-04-13T21:00:46.030Z,71.60
2023-04-13T21:03:10.132Z,71.92
2023-04-13T21:05:33.954Z,71.70
2023-04-13T21:07:57.786Z,72.13
2023-04-13T21:10:21.489Z,74.74
2023-04-13T21:12:46.937Z,72.95
2023-04-13T21:15:12.012Z,73.05
2023-04-13T21:17:35.823Z,72.59
2023-04-13T21:19:59.711Z,71.84
2023-04-13T21:22:23.798Z,71.88
2023-04-13T21:24:47.316Z,73.00
2023-04-13T21:27:10.881Z,73.22
2023-04-13T21:29:36.499Z,73.42
2023-04-13T21:32:01.506Z,73.19
2023-04-13T21:34:27.309Z,73.71
2023-04-13T21:36:52.064Z,73.77
2023-04-13T21:39:16.075Z,73.52
2023-04-13T21:41:41.980Z,73.68
2023-04-13T21:44:05.518Z,74.73
2023-04-13T21:46:30.841Z,74.95
2023-04-13T21:48:54.401Z,75.01
2023-04-13T21:51:18.422Z,74.53
2023-04-13T21:53:41.961Z,74.60
2023-04-13T21:56:06.909Z,74.89
2023-04-13T21:58:39.059Z,75.11
2023-04-13T22:01:02.688Z,74.99
2023-04-13T22:03:27.836Z,75.18
2023-04-13T22:05:51.465Z,75.97
2023-04-13T22:08:14.980Z,75.57
2023-04-13T22:10:38.599Z,75.41
2023-04-13T22:13:02.193Z,76.28
2023-04-13T22:15:25.995Z,75.45
2023-04-13T22:17:49.791Z,75.34
2023-04-13T22:20:15.065Z,75.08
2023-04-13T22:22:38.589Z,75.70
2023-04-13T22:25:02.204Z,75.84
2023-04-13T22:27:26.263Z,77.09
2023-04-13T22:29:49.859Z,75.44
2023-04-13T22:32:13.489Z,75.38
2023-04-13T22:34:37.299Z,75.76
2023-04-13T22:37:04.371Z,76.71
2023-04-13T22:39:30.792Z,75.71
2023-04-13T22:41:54.290Z,76.62
2023-04-13T22:44:17.844Z,76.09
2023-04-13T22:46:41.428Z,76.67
2023-04-13T22:49:05.583Z,75.98
2023-04-13T22:51:31.122Z,76.69
2023-04-13T22:53:57.231Z,76.31
2023-04-13T22:56:20.790Z,76.83
2023-04-13T22:58:44.387Z,77.15
2023-04-13T23:01:08.030Z,76.65
2023-04-13T23:03:31.849Z,77.67
2023-04-13T23:05:55.531Z,77.10
2023-04-13T23:08:19.156Z,76.48
2023-04-13T23:10:44.113Z,76.20
2023-04-13T23:13:07.874Z,76.35
2023-04-13T23:15:31.424Z,79.33
2023-04-13T23:17:55.723Z,78.52
2023-04-13T23:20:19.557Z,78.76
2023-04-13T23:22:43.127Z,79.64
2023-04-13T23:25:07.747Z,77.04
2023-04-13T23:27:32.797Z,79.32
2023-04-13T23:29:56.292Z,77.44
2023-04-13T23:32:19.848Z,76.52
2023-04-13T23:34:43.457Z,76.87
2023-04-13T23:37:07.103Z,79.20
2023-04-13T23:39:30.625Z,78.53
2023-04-13T23:41:54.219Z,78.09
2023-04-13T23:44:19.238Z,78.82
2023-04-13T23:46:43.564Z,77.12
2023-04-13T23:49:07.487Z,79.97
2023-04-13T23:51:31.234Z,83.00
2023-04-13T23:53:54.828Z,79.20
2023-04-13T23:56:18.442Z,78.09
2023-04-13T23:58:41.947Z,80.00
